Time;durP1;ratioP1;P1;durP2;ratioP2;P2;SDS_P1;SDS_P2;PMS_P1;PMS_P2;Temp;Humidity;BMP_temperature;BMP_pressure;BME280_temperature;BME280_humidity;BME280_pressure;Samples;Min_cycle;Max_cycle;Signal;HPM_P1;HPM_P2
2023/11/05 00:00:48;;;;;;;1.20;0.93;;;;;;;13.52;61.20;97714.94;4970310;28;100046;-81
2023/11/05 00:03:14;;;;;;;4.57;1.20;;;;;;;13.79;61.06;97714.13;4967557;28;96898;-81
2023/11/05 00:05:41;;;;;;;2.38;1.17;;;;;;;13.78;60.97;97709.81;4973906;28;96906;-80
2023/11/05 00:08:07;;;;;;;3.22;1.30;;;;;;;13.79;61.09;97706.16;4971167;28;99041;-80
2023/11/05 00:10:34;;;;;;;1.85;1.20;;;;;;;13.92;60.08;97695.19;4975393;28;97626;-81
2023/11/05 00:13:00;;;;;;;1.35;0.93;;;;;;;13.78;60.64;97695.72;4971363;28;96756;-79
2023/11/05 00:15:28;;;;;;;1.80;1.00;;;;;;;13.80;60.51;97691.91;4967791;28;96911;-79
2023/11/05 00:17:55;;;;;;;1.63;1.10;;;;;;;13.96;60.09;97697.41;4966600;28;97239;-79
2023/11/05 00:20:21;;;;;;;2.55;1.10;;;;;;;14.07;59.70;97690.22;4974195;28;97521;-79
2023/11/05 00:22:48;;;;;;;6.35;2.13;;;;;;;13.93;59.79;97697.69;4971700;28;96895;-79
2023/11/05 00:25:14;;;;;;;2.05;1.08;;;;;;;14.14;59.39;97692.13;4970717;28;97084;-79
2023/11/05 00:27:40;;;;;;;4.10;0.88;;;;;;;14.00;59.62;97684.66;4971289;28;98871;-79
2023/11/05 00:30:08;;;;;;;1.88;0.90;;;;;;;14.09;59.50;97682.94;4968395;28;101726;-79
2023/11/05 00:32:36;;;;;;;3.47;1.35;;;;;;;14.09;59.58;97682.94;4974120;28;97278;-79
2023/11/05 00:35:02;;;;;;;1.55;1.20;;;;;;;13.84;60.32;97689.81;4969236;28;96793;-79
2023/11/05 00:37:29;;;;;;;4.15;1.30;;;;;;;13.98;59.95;97676.84;4972675;28;97789;-79
2023/11/05 00:39:55;;;;;;;3.17;1.35;;;;;;;13.92;60.43;97677.44;4970980;28;101362;-79
2023/11/05 00:42:21;;;;;;;3.28;1.15;;;;;;;14.02;59.80;97671.25;4965652;28;96769;-79
2023/11/05 00:44:48;;;;;;;1.95;1.33;;;;;;;13.93;60.43;97665.84;4971244;28;98795;-78
2023/11/05 00:47:14;;;;;;;2.67;1.30;;;;;;;13.82;61.11;97673.19;4969680;28;97516;-78
2023/11/05 00:49:42;;;;;;;3.97;1.70;;;;;;;13.82;61.32;97668.72;4968161;28;98894;-79
2023/11/05 00:52:08;;;;;;;1.73;1.02;;;;;;;13.84;60.97;97666.78;4972283;28;96842;-78
2023/11/05 00:54:35;;;;;;;1.98;1.20;;;;;;;13.94;60.74;97670.19;4971379;28;97420;-80
2023/11/05 00:57:01;;;;;;;6.72;1.15;;;;;;;13.88;61.19;97667.28;4971291;28;97636;-81
2023/11/05 00:59:28;;;;;;;3.15;1.13;;;;;;;13.87;61.03;97673.56;4971978;28;101882;-80
2023/11/05 01:01:57;;;;;;;1.45;0.90;;;;;;;13.57;62.23;97666.78;4975119;28;96748;-79
2023/11/05 01:04:23;;;;;;;1.48;1.08;;;;;;;13.91;61.37;97659.84;4977014;28;97079;-79
2023/11/05 01:06:51;;;;;;;2.80;0.95;;;;;;;14.16;60.54;97657.47;4970249;28;100746;-79
2023/11/05 01:09:17;;;;;;;2.17;1.17;;;;;;;14.15;60.61;97663.75;4970071;28;98730;-82
2023/11/05 01:11:45;;;;;;;3.97;1.50;;;;;;;14.05;61.00;97666.47;4976395;28;96822;-80
2023/11/05 01:14:11;;;;;;;3.92;1.05;;;;;;;14.00;60.77;97667.91;4969021;28;96774;-78
2023/11/05 01:16:37;;;;;;;2.10;1.20;;;;;;;13.91;61.12;97659.84;4970816;28;101223;-79
2023/11/05 01:19:04;;;;;;;1.92;1.10;;;;;;;13.87;61.08;97655.84;4970496;28;98806;-78
2023/11/05 01:21:30;;;;;;;1.83;1.10;;;;;;;13.80;62.13;97646.81;4971003;28;98885;-78
2023/11/05 01:23:58;;;;;;;2.22;1.30;;;;;;;13.89;61.66;97650.38;4968155;28;96996;-79
2023/11/05 01:26:24;;;;;;;3.10;1.00;;;;;;;14.07;61.08;97648.56;4971218;28;97643;-79
2023/11/05 01:28:51;;;;;;;1.50;1.00;;;;;;;13.91;61.73;97645.78;4969307;28;96818;-80
2023/11/05 01:31:17;;;;;;;3.03;1.10;;;;;;;14.09;61.34;97646.63;4970272;28;96829;-80
2023/11/05 01:33:44;;;;;;;3.50;1.27;;;;;;;14.21;60.63;97649.88;4973257;28;96723;-80
2023/11/05 01:36:10;;;;;;;3.25;1.17;;;;;;;13.96;61.47;97648.81;4970358;28;98982;-80
2023/11/05 01:38:36;;;;;;;2.65;1.10;;;;;;;14.08;61.49;97649.41;4965949;28;99334;-79
2023/11/05 01:41:04;;;;;;;2.92;1.10;;;;;;;14.02;61.05;97650.84;4971098;28;96684;-79
2023/11/05 01:43:31;;;;;;;5.93;0.98;;;;;;;14.09;61.39;97648.44;4968895;28;96730;-79
2023/11/05 01:45:58;;;;;;;1.13;0.88;;;;;;;14.07;61.59;97642.44;4970552;28;99237;-79
2023/11/05 01:48:25;;;;;;;1.67;1.20;;;;;;;14.06;61.43;97638.94;4968982;28;98683;-81
2023/11/05 01:50:51;;;;;;;2.03;1.00;;;;;;;13.85;62.12;97635.72;4966509;28;98255;-81
2023/11/05 01:53:18;;;;;;;6.30;1.27;;;;;;;14.07;61.45;97640.59;4970268;28;96764;-80
2023/11/05 01:55:44;;;;;;;2.45;0.70;;;;;;;14.15;61.72;97640.69;4970903;28;102206;-79
2023/11/05 01:58:13;;;;;;;3.38;1.00;;;;;;;14.31;60.92;97642.66;4967124;28;100135;-79
2023/11/05 02:00:40;;;;;;;2.20;1.20;;;;;;;14.35;61.15;97636.06;4971475;28;96713;-79
2023/11/05 02:03:07;;;;;;;2.15;1.23;;;;;;;14.22;62.11;97636.44;4970889;28;96746;-79
2023/11/05 02:05:33;;;;;;;2.28;1.00;;;;;;;14.02;63.30;97644.72;4971480;28;98057;-79
2023/11/05 02:08:00;;;;;;;2.80;1.23;;;;;;;14.06;63.78;97638.94;4969244;28;99828;-79
2023/11/05 02:10:26;;;;;;;2.17;1.00;;;;;;;14.15;63.95;97639.84;4968906;28;96813;-79
2023/11/05 02:12:57;;;;;;;2.25;0.90;;;;;;;14.09;65.08;97636.00;4973022;28;97002;-78
2023/11/05 02:15:25;;;;;;;1.50;1.05;;;;;;;14.06;65.84;97641.59;4970038;28;99375;-78
2023/11/05 02:17:52;;;;;;;4.28;1.20;;;;;;;14.12;65.86;97637.50;4966374;28;101318;-82
2023/11/05 02:20:19;;;;;;;2.03;1.02;;;;;;;13.92;67.44;97634.13;4976833;28;96808;-81
2023/11/05 02:22:48;;;;;;;2.95;1.17;;;;;;;13.95;67.97;97632.03;4979922;28;97108;-82
2023/11/05 02:25:19;;;;;;;3.17;1.00;;;;;;;13.77;69.00;97638.31;4970887;28;99510;-81
2023/11/05 02:27:46;;;;;;;1.85;1.10;;;;;;;13.65;69.79;97639.50;4972297;28;98830;-81
2023/11/05 02:30:16;;;;;;;2.58;1.10;;;;;;;13.56;71.06;97643.88;4972544;28;96778;-81
2023/11/05 02:32:42;;;;;;;2.03;1.13;;;;;;;13.65;71.16;97644.81;4974881;28;96806;-81
2023/11/05 02:35:09;;;;;;;1.10;1.00;;;;;;;13.63;71.16;97644.97;4976249;28;98015;-81
2023/11/05 02:37:35;;;;;;;1.92;1.00;;;;;;;13.77;71.32;97652.41;4971629;28;98992;-78
2023/11/05 02:40:02;;;;;;;3.03;1.10;;;;;;;13.62;72.50;97653.91;4971587;28;96913;-78
2023/11/05 02:42:29;;;;;;;2.25;0.93;;;;;;;13.39;73.64;97645.47;4970682;28;96966;-78
2023/11/05 02:44:56;;;;;;;3.38;1.33;;;;;;;13.46;74.08;97648.38;4970630;28;98847;-77
2023/11/05 02:47:22;;;;;;;1.75;0.98;;;;;;;13.67;73.64;97653.44;4969161;28;97988;-77
2023/11/05 02:49:48;;;;;;;2.10;1.13;;;;;;;13.55;73.96;97647.50;4971854;28;96792;-77
2023/11/05 02:52:15;;;;;;;2.47;0.93;;;;;;;13.80;73.30;97643.31;4972464;28;96739;-78
2023/11/05 02:54:41;;;;;;;2.03;1.20;;;;;;;13.43;75.14;97641.56;4968416;28;98964;-78
2023/11/05 02:57:07;;;;;;;2.85;1.10;;;;;;;13.40;75.58;97643.66;4970870;28;98478;-77
2023/11/05 02:59:35;;;;;;;1.52;1.15;;;;;;;13.36;76.02;97648.44;4969269;28;96822;-77
2023/11/05 03:02:01;;;;;;;6.20;1.08;;;;;;;13.36;76.15;97643.13;4974699;28;96848;-80
2023/11/05 03:04:28;;;;;;;1.67;0.98;;;;;;;13.41;76.29;97642.69;4977640;28;99347;-80
2023/11/05 03:06:54;;;;;;;3.22;1.10;;;;;;;13.51;76.01;97641.69;4974443;28;98768;-80
2023/11/05 03:09:23;;;;;;;3.35;1.17;;;;;;;13.69;75.39;97632.91;4971612;28;98707;-80
2023/11/05 03:11:51;;;;;;;1.65;1.20;;;;;;;13.64;75.39;97630.72;4971104;28;96802;-80
2023/11/05 03:14:17;;;;;;;3.78;1.60;;;;;;;13.60;75.85;97629.31;4971534;28;101213;-81
2023/11/05 03:16:45;;;;;;;3.28;1.10;;;;;;;13.65;75.71;97626.25;4969146;28;98925;-80
2023/11/05 03:19:13;;;;;;;1.98;1.23;;;;;;;13.58;76.51;97623.34;4975658;28;97116;-79
2023/11/05 03:21:40;;;;;;;3.30;1.15;;;;;;;13.79;75.44;97618.59;4974304;28;97398;-80
2023/11/05 03:24:08;;;;;;;2.92;1.20;;;;;;;13.71;75.81;97615.88;4976286;28;99046;-80
2023/11/05 03:26:34;;;;;;;3.92;1.95;;;;;;;13.49;76.90;97606.50;4968631;28;99148;-80
2023/11/05 03:29:01;;;;;;;3.80;0.85;;;;;;;13.86;75.25;97603.72;4974255;28;96872;-80
2023/11/05 03:31:27;;;;;;;1.20;1.10;;;;;;;13.71;76.11;97599.13;4971910;28;97613;-80
2023/11/05 03:33:55;;;;;;;1.80;1.35;;;;;;;13.54;76.92;97596.28;4969023;28;99292;-80
2023/11/05 03:36:21;;;;;;;4.10;1.83;;;;;;;13.60;76.67;97597.50;4974262;28;99018;-80
2023/11/05 03:38:48;;;;;;;3.38;1.35;;;;;;;13.41;77.47;97595.78;4979916;28;97181;-80
2023/11/05 03:41:14;;;;;;;4.22;1.13;;;;;;;13.47;77.75;97595.19;4973413;28;97121;-81
2023/11/05 03:43:41;;;;;;;2.25;1.05;;;;;;;13.51;77.04;97599.25;4972348;28;101187;-80
2023/11/05 03:46:09;;;;;;;3.65;1.15;;;;;;;13.40;78.13;97595.94;4976075;28;101985;-80
2023/11/05 03:48:35;;;;;;;2.83;1.00;;;;;;;13.46;77.79;97604.13;4969686;28;97009;-80
2023/11/05 03:51:03;;;;;;;1.20;0.85;;;;;;;13.53;77.25;97607.03;4973416;28;96981;-78
2023/11/05 03:53:30;;;;;;;2.70;1.15;;;;;;;13.49;77.61;97595.88;4975936;28;97056;-80
2023/11/05 03:55:56;;;;;;;3.80;1.08;;;;;;;13.14;79.49;97604.56;4973407;28;98807;-81
2023/11/05 03:58:23;;;;;;;1.70;1.00;;;;;;;13.39;78.59;97603.06;4982980;28;97541;-80
2023/11/05 04:00:49;;;;;;;1.70;0.90;;;;;;;13.29;79.08;97594.31;4988637;28;96972;-81
2023/11/05 04:03:15;;;;;;;2.38;0.70;;;;;;;13.32;79.00;97598.50;4983372;28;99115;-80
2023/11/05 04:05:42;;;;;;;2.80;1.17;;;;;;;13.16;79.76;97594.66;4984862;28;99148;-81
2023/11/05 04:08:09;;;;;;;3.42;1.40;;;;;;;13.21;79.78;97590.72;4982506;28;98824;-81
2023/11/05 04:10:36;;;;;;;2.75;1.10;;;;;;;13.14;79.50;97588.66;4976325;28;97343;-81
2023/11/05 04:13:02;;;;;;;1.63;0.98;;;;;;;13.23;79.65;97586.13;4984603;28;98101;-81
2023/11/05 04:15:29;;;;;;;1.63;0.90;;;;;;;13.35;79.12;97582.28;4976536;28;99143;-79
2023/11/05 04:17:55;;;;;;;1.33;1.00;;;;;;;13.34;79.20;97572.66;4978688;28;96644;-79
2023/11/05 04:20:21;;;;;;;1.70;1.60;;;;;;;13.35;79.42;97579.63;4977961;28;96790;-78
2023/11/05 04:22:48;;;;;;;3.92;1.55;;;;;;;13.34;79.08;97583.25;4978662;28;99315;-79
2023/11/05 04:25:16;;;;;;;3.00;1.13;;;;;;;13.34;79.37;97580.63;4976438;28;99257;-78
2023/11/05 04:27:42;;;;;;;1.83;1.15;;;;;;;13.27;79.64;97590.13;4976282;28;96702;-78
2023/11/05 04:30:09;;;;;;;3.75;1.20;;;;;;;13.11;80.45;97578.34;4980607;28;96801;-79
2023/11/05 04:32:36;;;;;;;2.50;1.20;;;;;;;13.43;79.17;97582.38;4974775;28;97819;-79
2023/11/05 04:35:02;;;;;;;8.07;1.08;;;;;;;13.61;78.30;97577.94;4974255;28;98710;-79
2023/11/05 04:37:28;;;;;;;3.67;1.10;;;;;;;13.56;78.41;97573.09;4972648;28;96855;-79
2023/11/05 04:39:55;;;;;;;3.15;1.25;;;;;;;13.47;78.57;97573.13;4974460;28;96831;-79
2023/11/05 04:42:22;;;;;;;3.13;1.25;;;;;;;13.57;78.07;97572.13;4975425;28;99164;-80
2023/11/05 04:44:49;;;;;;;1.65;1.30;;;;;;;13.71;77.90;97572.59;4973093;28;98914;-80
2023/11/05 04:47:15;;;;;;;3.67;0.98;;;;;;;13.55;78.63;97583.84;4974458;28;96749;-80
2023/11/05 04:49:42;;;;;;;1.48;1.10;;;;;;;13.56;78.23;97572.25;4975700;28;96971;-80
2023/11/05 04:52:09;;;;;;;2.88;0.90;;;;;;;13.33;79.64;97581.59;4974907;28;96823;-79
2023/11/05 04:54:35;;;;;;;1.17;0.98;;;;;;;13.48;78.75;97575.66;4973973;28;97728;-79
2023/11/05 04:57:01;;;;;;;1.02;0.80;;;;;;;13.26;79.41;97577.88;4983489;28;96692;-79
2023/11/05 04:59:29;;;;;;;1.42;0.85;;;;;;;13.39;79.46;97571.22;4979506;28;96993;-79
2023/11/05 05:01:57;;;;;;;9.48;2.97;;;;;;;13.36;79.44;97573.34;4975684;28;98707;-81
2023/11/05 05:04:23;;;;;;;3.30;1.02;;;;;;;13.16;80.27;97568.16;4974373;28;98845;-79
2023/11/05 05:06:51;;;;;;;4.72;0.88;;;;;;;13.31;79.50;97565.84;4976266;28;96748;-79
2023/11/05 05:09:17;;;;;;;1.58;0.77;;;;;;;13.32;79.40;97561.38;4975216;28;97106;-80
2023/11/05 05:11:44;;;;;;;2.17;0.93;;;;;;;13.36;79.48;97568.88;4973849;28;102019;-75
2023/11/05 05:14:10;;;;;;;3.22;0.73;;;;;;;13.41;78.92;97563.97;4973338;28;98875;-76
2023/11/05 05:16:38;;;;;;;1.95;0.55;;;;;;;13.13;80.21;97557.84;4975300;28;96978;-77
2023/11/05 05:19:05;;;;;;;0.90;0.73;;;;;;;13.15;80.15;97555.88;4972646;28;97004;-76
2023/11/05 05:21:31;;;;;;;3.80;1.17;;;;;;;13.29;79.28;97551.06;4971753;28;101160;-77
2023/11/05 05:23:58;;;;;;;1.80;0.52;;;;;;;13.28;79.54;97554.69;4973905;28;98853;-79
2023/11/05 05:26:24;;;;;;;1.00;0.68;;;;;;;13.11;80.23;97553.66;4976298;28;96658;-79
2023/11/05 05:28:51;;;;;;;1.08;0.60;;;;;;;13.22;79.85;97549.97;4972119;28;96748;-79
2023/11/05 05:31:17;;;;;;;5.10;1.02;;;;;;;13.33;79.11;97547.13;4972066;28;99233;-78
2023/11/05 05:33:45;;;;;;;4.95;1.10;;;;;;;13.28;79.07;97565.28;4972281;28;98791;-78
2023/11/05 05:36:12;;;;;;;0.93;0.60;;;;;;;13.22;79.72;97555.28;4971812;28;97145;-77
2023/11/05 05:38:39;;;;;;;2.30;0.70;;;;;;;13.16;79.73;97557.56;4971884;28;96803;-77
2023/11/05 05:41:06;;;;;;;1.27;0.65;;;;;;;13.13;80.00;97552.53;4970198;28;99611;-76
2023/11/05 05:43:32;;;;;;;6.90;0.90;;;;;;;13.25;79.24;97552.34;4970251;28;97682;-77
2023/11/05 05:45:58;;;;;;;3.90;0.63;;;;;;;13.07;79.66;97552.25;4968855;28;96804;-78
2023/11/05 05:48:25;;;;;;;1.25;0.65;;;;;;;13.29;79.14;97556.38;4971582;28;98044;-79
2023/11/05 05:50:53;;;;;;;3.13;0.65;;;;;;;13.31;78.60;97559.72;4972457;28;99097;-78
2023/11/05 05:53:19;;;;;;;0.77;0.60;;;;;;;13.18;78.67;97561.88;4971764;28;98732;-78
2023/11/05 05:55:46;;;;;;;1.27;0.50;;;;;;;12.95;80.00;97554.25;4970906;28;96850;-78
2023/11/05 05:58:13;;;;;;;2.67;0.60;;;;;;;13.10;79.33;97551.97;4971272;28;96970;-78
2023/11/05 06:00:39;;;;;;;2.28;0.45;;;;;;;13.10;79.22;97555.47;4963047;28;98710;-78
2023/11/05 06:03:05;;;;;;;1.27;0.60;;;;;;;13.15;79.11;97560.34;4967075;28;99413;-78
2023/11/05 06:05:32;;;;;;;1.23;0.52;;;;;;;13.19;78.04;97560.91;4972731;28;97342;-78
2023/11/05 06:07:59;;;;;;;2.15;0.50;;;;;;;13.03;79.04;97556.19;4971423;28;96895;-77
2023/11/05 06:10:26;;;;;;;0.98;0.40;;;;;;;12.99;79.39;97549.53;4971611;28;98733;-78
2023/11/05 06:12:53;;;;;;;2.83;0.45;;;;;;;13.11;78.70;97551.00;4970504;28;100384;-78
2023/11/05 06:15:19;;;;;;;0.90;0.50;;;;;;;13.23;77.70;97549.84;4970212;28;96720;-78
2023/11/05 06:17:46;;;;;;;1.35;0.60;;;;;;;13.11;77.90;97551.84;4972294;28;97105;-78
2023/11/05 06:20:12;;;;;;;2.60;0.50;;;;;;;13.16;77.83;97552.25;4971823;28;99768;-78
2023/11/05 06:22:39;;;;;;;0.75;0.40;;;;;;;13.24;77.31;97548.03;4970828;28;98692;-78
2023/11/05 06:25:09;;;;;;;5.97;0.90;;;;;;;13.27;76.86;97553.00;4971481;28;96687;-77
2023/11/05 06:27:37;;;;;;;0.68;0.40;;;;;;;13.22;77.27;97539.38;4972500;28;96722;-78
2023/11/05 06:30:05;;;;;;;4.55;0.57;;;;;;;13.23;77.28;97541.06;4970025;28;99183;-77
2023/11/05 06:32:32;;;;;;;1.65;0.50;;;;;;;13.16;77.21;97546.94;4970359;28;98820;-77
2023/11/05 06:34:58;;;;;;;1.85;0.50;;;;;;;13.26;76.95;97535.47;4971858;28;97365;-78
2023/11/05 06:37:25;;;;;;;1.67;0.77;;;;;;;13.31;75.93;97533.19;4971632;28;97054;-78
2023/11/05 06:39:51;;;;;;;1.13;0.50;;;;;;;13.33;75.94;97537.34;4972124;28;100704;-78
2023/11/05 06:42:20;;;;;;;1.10;0.60;;;;;;;13.47;75.60;97543.97;4971282;28;97990;-78
2023/11/05 06:44:46;;;;;;;2.92;0.47;;;;;;;13.57;75.32;97539.44;4972197;28;96771;-78
2023/11/05 06:47:13;;;;;;;0.88;0.40;;;;;;;13.63;75.36;97538.00;4969168;28;98683;-77
2023/11/05 06:49:39;;;;;;;2.85;0.60;;;;;;;13.89;74.18;97533.59;4970685;28;98078;-75
2023/11/05 06:52:06;;;;;;;1.48;0.50;;;;;;;13.95;74.35;97539.13;4970230;28;99324;-75
2023/11/05 06:54:33;;;;;;;1.85;0.70;;;;;;;13.96;73.13;97532.00;4970951;28;96933;-76
2023/11/05 06:56:59;;;;;;;1.75;0.73;;;;;;;13.88;73.68;97530.13;4971389;28;96848;-76
2023/11/05 06:59:27;;;;;;;0.60;0.40;;;;;;;14.15;71.79;97534.47;4969626;28;97762;-77
2023/11/05 07:01:53;;;;;;;1.00;0.47;;;;;;;14.19;71.90;97535.00;4963078;28;99157;-77
2023/11/05 07:04:19;;;;;;;1.08;0.63;;;;;;;14.46;70.57;97532.25;4971712;28;96717;-77
2023/11/05 07:06:47;;;;;;;2.90;0.60;;;;;;;14.40;71.01;97527.56;4972395;28;98719;-77
2023/11/05 07:09:15;;;;;;;1.25;0.60;;;;;;;14.77;69.04;97532.56;4969983;28;99019;-78
2023/11/05 07:11:41;;;;;;;3.28;0.68;;;;;;;14.80;68.50;97526.13;4966213;28;99261;-79
2023/11/05 07:14:09;;;;;;;1.58;0.50;;;;;;;14.84;68.73;97519.47;4969695;28;97374;-78
2023/11/05 07:16:37;;;;;;;0.90;0.50;;;;;;;14.79;68.66;97522.63;4971983;28;96821;-78
2023/11/05 07:19:03;;;;;;;0.95;0.88;;;;;;;14.74;68.97;97523.13;4970575;28;98992;-81
2023/11/05 07:21:30;;;;;;;0.98;0.60;;;;;;;14.67;68.71;97514.09;4969565;28;99203;-79
2023/11/05 07:23:56;;;;;;;1.27;0.50;;;;;;;14.84;67.81;97509.69;4971539;28;96896;-80
2023/11/05 07:26:24;;;;;;;1.95;0.63;;;;;;;14.82;68.52;97516.19;4975969;28;96871;-77
2023/11/05 07:28:50;;;;;;;1.17;0.55;;;;;;;14.77;69.13;97510.50;4968146;28;100657;-81
2023/11/05 07:31:21;;;;;;;1.83;0.75;;;;;;;14.75;68.73;97514.16;4969483;28;99126;-78
2023/11/05 07:33:49;;;;;;;1.10;0.50;;;;;;;14.91;68.14;97507.22;4965965;28;97219;-76
2023/11/05 07:36:15;;;;;;;1.10;0.68;;;;;;;14.84;68.62;97507.03;4975148;28;96916;-78
2023/11/05 07:38:42;;;;;;;1.67;0.43;;;;;;;14.64;69.95;97506.44;4974926;28;100737;-78
2023/11/05 07:41:08;;;;;;;0.90;0.75;;;;;;;14.64;69.67;97511.75;4965411;28;98778;-78
2023/11/05 07:43:35;;;;;;;0.77;0.35;;;;;;;14.84;69.22;97504.38;4971049;28;96838;-78
2023/11/05 07:46:01;;;;;;;0.75;0.40;;;;;;;14.91;68.56;97505.41;4971705;28;97133;-79
2023/11/05 07:48:28;;;;;;;0.90;0.52;;;;;;;14.96;67.58;97513.75;4968821;28;98844;-79
2023/11/05 07:50:56;;;;;;;4.38;0.60;;;;;;;14.90;67.51;97514.38;4970371;28;99040;-79
2023/11/05 07:53:22;;;;;;;2.20;0.73;;;;;;;14.77;68.05;97505.19;4969528;28;96883;-78
2023/11/05 07:55:49;;;;;;;2.58;0.50;;;;;;;14.87;67.43;97509.38;4969491;28;96734;-78
2023/11/05 07:58:15;;;;;;;1.35;0.60;;;;;;;14.82;67.35;97510.84;4970378;28;99157;-78
2023/11/05 08:00:42;;;;;;;1.10;0.50;;;;;;;14.77;67.17;97509.50;4968980;28;99182;-78
2023/11/05 08:03:08;;;;;;;1.15;0.77;;;;;;;14.88;67.60;97507.56;4968639;28;96767;-78
2023/11/05 08:05:35;;;;;;;1.42;0.70;;;;;;;14.71;67.93;97514.59;4970722;28;96751;-78
2023/11/05 08:08:03;;;;;;;6.00;0.60;;;;;;;14.79;67.72;97505.84;4973467;28;97824;-77
2023/11/05 08:10:29;;;;;;;4.95;0.63;;;;;;;14.87;67.86;97513.88;4973676;28;98912;-77
2023/11/05 08:12:55;;;;;;;1.25;0.60;;;;;;;15.18;66.56;97512.31;4972474;28;96735;-77
2023/11/05 08:15:22;;;;;;;1.50;0.82;;;;;;;15.09;67.04;97513.31;4973346;28;97210;-79
2023/11/05 08:17:48;;;;;;;1.52;0.70;;;;;;;14.90;67.65;97513.56;4966219;28;98916;-78
2023/11/05 08:20:15;;;;;;;2.25;0.93;;;;;;;15.01;67.86;97506.13;4971617;28;101807;-78
2023/11/05 08:22:41;;;;;;;1.23;0.80;;;;;;;15.12;66.83;97505.81;4971615;28;97958;-78
2023/11/05 08:25:10;;;;;;;2.00;0.60;;;;;;;15.14;66.56;97505.66;4961549;28;97146;-78
2023/11/05 08:27:36;;;;;;;1.60;1.00;;;;;;;15.17;66.70;97505.34;4964015;28;98121;-78
2023/11/05 08:30:04;;;;;;;0.60;0.60;;;;;;;15.30;66.18;97513.69;4961594;28;99026;-79
2023/11/05 08:32:30;;;;;;;4.15;1.17;;;;;;;15.02;67.45;97512.28;4967932;28;97154;-78
2023/11/05 08:34:57;;;;;;;1.95;1.02;;;;;;;14.96;68.78;97520.91;4959325;28;97136;-78
2023/11/05 08:37:24;;;;;;;2.95;0.90;;;;;;;14.86;69.88;97526.31;4959012;28;98934;-78
2023/11/05 08:39:50;;;;;;;2.60;0.73;;;;;;;14.92;69.14;97520.38;4961488;28;98427;-79
2023/11/05 08:42:18;;;;;;;1.65;0.90;;;;;;;14.96;69.28;97531.53;4961164;28;98413;-77
2023/11/05 08:44:45;;;;;;;0.95;0.85;;;;;;;15.04;69.67;97532.38;4967446;28;96720;-78
2023/11/05 08:47:11;;;;;;;1.02;0.93;;;;;;;14.94;70.05;97529.03;4974154;28;98831;-77
2023/11/05 08:49:37;;;;;;;1.45;0.90;;;;;;;15.06;70.67;97537.53;4970225;28;102115;-78
2023/11/05 08:52:06;;;;;;;2.20;0.90;;;;;;;15.02;70.31;97541.53;4969615;28;96856;-79
2023/11/05 08:54:33;;;;;;;2.47;1.00;;;;;;;14.91;70.60;97541.78;4964225;28;97453;-78
2023/11/05 08:56:59;;;;;;;2.17;0.80;;;;;;;14.98;70.67;97533.03;4969930;28;98922;-78
2023/11/05 08:59:27;;;;;;;2.80;0.98;;;;;;;15.12;69.95;97542.22;4964752;28;102218;-78
2023/11/05 09:01:56;;;;;;;0.88;0.85;;;;;;;14.91;70.09;97545.28;4970883;28;97044;-79
2023/11/05 09:04:23;;;;;;;1.27;0.90;;;;;;;14.81;70.80;97546.41;4976783;28;97516;-78
2023/11/05 09:06:49;;;;;;;1.98;0.95;;;;;;;14.97;71.03;97546.47;4968924;28;98963;-78
2023/11/05 09:09:16;;;;;;;2.35;1.02;;;;;;;15.20;69.67;97541.41;4969075;28;99810;-77
2023/11/05 09:11:51;;;;;;;1.23;0.90;;;;;;;15.14;70.45;97537.59;4969975;28;96773;-78
2023/11/05 09:14:18;;;;;;;1.50;1.00;;;;;;;15.39;69.30;97536.66;4963207;28;97178;-79
2023/11/05 09:16:45;;;;;;;0.80;0.80;;;;;;;15.28;69.08;97544.13;4965387;28;98923;-78
2023/11/05 09:19:12;;;;;;;3.70;1.00;;;;;;;15.39;69.25;97536.66;4964035;28;98940;-78
2023/11/05 09:21:41;;;;;;;5.57;1.00;;;;;;;15.36;67.88;97536.97;4970047;28;96853;-78
2023/11/05 09:24:08;;;;;;;1.45;1.08;;;;;;;15.23;68.52;97536.59;4966768;28;97206;-78
2023/11/05 09:26:34;;;;;;;1.40;0.98;;;;;;;15.45;68.25;97529.84;4970192;28;99370;-78
2023/11/05 09:29:05;;;;;;;2.38;0.88;;;;;;;15.48;68.68;97538.38;4970232;28;99073;-78
2023/11/05 09:31:32;;;;;;;2.78;1.10;;;;;;;15.34;68.00;97532.84;4964930;28;97863;-78
2023/11/05 09:33:59;;;;;;;1.17;1.00;;;;;;;15.21;68.67;97532.47;4965916;28;96915;-77
2023/11/05 09:36:26;;;;;;;5.05;2.22;;;;;;;15.51;68.40;97534.53;4970539;28;101929;-77
2023/11/05 09:38:53;;;;;;;2.15;1.00;;;;;;;15.21;68.50;97543.09;4966447;28;101209;-77
2023/11/05 09:41:20;;;;;;;2.33;0.93;;;;;;;15.20;68.55;97542.25;4967181;28;101866;-77
2023/11/05 09:43:48;;;;;;;1.60;1.08;;;;;;;15.12;68.61;97540.41;4968956;28;97326;-77
2023/11/05 09:46:15;;;;;;;2.58;0.88;;;;;;;15.01;69.94;97547.84;4969795;28;98392;-77
2023/11/05 09:48:42;;;;;;;1.83;1.15;;;;;;;15.18;69.24;97546.91;4969480;28;97981;-76
2023/11/05 09:51:12;;;;;;;2.25;1.23;;;;;;;15.09;69.41;97537.25;4965105;28;97773;-78
2023/11/05 09:53:39;;;;;;;1.67;1.17;;;;;;;14.96;69.58;97542.16;4964737;28;96863;-78
2023/11/05 09:56:06;;;;;;;1.65;1.10;;;;;;;15.06;70.12;97543.69;4966497;28;98950;-78
2023/11/05 09:58:33;;;;;;;1.52;0.85;;;;;;;14.96;69.74;97534.19;4971508;28;99109;-77
2023/11/05 10:00:59;;;;;;;2.15;1.00;;;;;;;15.00;70.30;97533.69;4963315;28;99246;-78
2023/11/05 10:03:26;;;;;;;4.93;1.17;;;;;;;15.09;70.36;97518.63;4965489;28;96913;-77
2023/11/05 10:05:55;;;;;;;1.25;0.80;;;;;;;15.27;69.18;97537.97;4960363;28;98949;-77
2023/11/05 10:08:24;;;;;;;5.03;1.05;;;;;;;14.96;70.80;97534.19;4967314;28;98118;-78
2023/11/05 10:10:57;;;;;;;3.13;0.85;;;;;;;14.80;71.99;97534.09;4965533;28;98302;-78
2023/11/05 10:13:26;;;;;;;3.78;1.00;;;;;;;15.03;71.57;97537.88;4967901;28;96943;-77
2023/11/05 10:15:53;;;;;;;2.03;1.10;;;;;;;15.20;70.96;97530.78;4961571;28;98929;-77
2023/11/05 10:18:21;;;;;;;2.30;0.85;;;;;;;15.34;70.30;97540.81;4968227;28;100972;-78
2023/11/05 10:20:49;;;;;;;1.98;0.90;;;;;;;15.56;69.84;97531.44;4956742;28;98714;-78
2023/11/05 10:23:16;;;;;;;7.05;1.10;;;;;;;15.53;70.13;97527.25;4964319;28;97035;-77
2023/11/05 10:25:47;;;;;;;2.20;1.02;;;;;;;15.69;69.42;97531.75;4963801;28;100771;-77
2023/11/05 10:28:13;;;;;;;2.60;0.93;;;;;;;15.67;69.89;97533.78;4960862;28;98758;-78
2023/11/05 10:30:40;;;;;;;3.33;0.80;;;;;;;15.57;70.27;97533.06;4963126;28;97416;-78
2023/11/05 10:33:07;;;;;;;2.45;0.93;;;;;;;15.60;70.28;97535.41;4961714;28;98844;-77
2023/11/05 10:35:37;;;;;;;3.08;0.90;;;;;;;15.61;70.70;97537.09;4959725;28;100170;-77
2023/11/05 10:38:04;;;;;;;2.88;0.93;;;;;;;15.51;71.05;97523.88;4965630;28;103115;-78
2023/11/05 10:40:30;;;;;;;2.45;0.70;;;;;;;15.62;71.50;97525.44;4960002;28;96910;-77
2023/11/05 10:42:59;;;;;;;4.10;0.98;;;;;;;15.58;70.55;97519.59;4960951;28;99799;-78
2023/11/05 10:45:26;;;;;;;2.90;0.93;;;;;;;15.83;70.27;97517.81;4962775;28;100352;-77
2023/11/05 10:47:52;;;;;;;2.53;0.80;;;;;;;15.87;70.85;97525.31;4962307;28;98813;-76
2023/11/05 10:50:22;;;;;;;1.90;0.70;;;;;;;15.93;70.59;97511.34;4967183;28;98651;-79
2023/11/05 10:52:51;;;;;;;3.75;1.15;;;;;;;16.07;70.45;97514.34;4964128;28;98767;-78
2023/11/05 10:55:18;;;;;;;4.20;1.27;;;;;;;15.97;70.64;97518.97;4961503;28;99419;-77
2023/11/05 10:57:46;;;;;;;1.63;0.80;;;;;;;15.98;69.85;97515.31;4964314;28;99160;-78
2023/11/05 11:00:52;;;;;;;1.77;0.73;;;;;;;15.91;69.92;97521.31;4961006;28;97369;-78
2023/11/05 11:03:20;;;;;;;1.02;0.73;;;;;;;16.12;69.07;97526.16;4961265;28;96848;-79
2023/11/05 11:05:57;;;;;;;4.22;0.80;;;;;;;16.17;68.31;97515.81;4956190;28;97775;-77
2023/11/05 11:08:25;;;;;;;2.50;1.20;;;;;;;16.37;68.66;97520.78;4970722;28;99060;-78
2023/11/05 11:11:11;;;;;;;2.40;0.85;;;;;;;16.57;66.98;97506.09;4965219;28;96805;-77
2023/11/05 11:13:39;;;;;;;3.70;1.00;;;;;;;16.47;67.46;97522.31;4960234;28;98978;-77
2023/11/05 11:16:08;;;;;;;1.05;0.55;;;;;;;16.72;67.38;97528.44;4960743;28;100784;-77
2023/11/05 11:18:36;;;;;;;2.80;0.77;;;;;;;16.95;66.22;97513.34;4962619;28;98856;-77
2023/11/05 11:21:04;;;;;;;4.97;0.98;;;;;;;16.87;66.59;97525.91;4965367;28;96731;-77
2023/11/05 11:23:30;;;;;;;2.97;0.73;;;;;;;16.69;66.78;97518.94;4962161;28;96935;-77
2023/11/05 11:26:01;;;;;;;4.35;0.93;;;;;;;17.06;65.62;97522.84;4965563;28;102757;-75
2023/11/05 11:28:28;;;;;;;2.03;0.98;;;;;;;17.02;64.99;97526.81;4968360;28;99179;-75
2023/11/05 11:30:55;;;;;;;2.13;0.63;;;;;;;17.28;65.13;97521.22;4964319;28;97056;-77